createdAt,value
2023-04-22T00:01:07.174Z,100221.75
2023-04-22T00:03:33.893Z,100218.31
2023-04-22T00:06:00.927Z,100221.94
2023-04-22T00:08:27.404Z,100222.09
2023-04-22T00:10:53.795Z,100210.59
2023-04-22T00:13:20.165Z,100215.94
2023-04-22T00:15:46.566Z,100212.44
2023-04-22T00:18:14.125Z,100214.22
2023-04-22T00:20:40.775Z,100215.16
2023-04-22T00:23:07.193Z,100214.22
2023-04-22T00:25:33.608Z,100215.09
2023-04-22T00:28:00.010Z,100213.38
2023-04-22T00:30:26.422Z,100216.97
2023-04-22T00:32:52.853Z,100208.16
2023-04-22T00:35:19.233Z,100212.53
2023-04-22T00:37:45.748Z,100211.56
2023-04-22T00:40:12.169Z,100203.47
2023-04-22T00:42:38.724Z,100196.47
2023-04-22T00:45:05.868Z,100199.91
2023-04-22T00:47:32.392Z,100202.69
2023-04-22T00:49:58.754Z,100210.66
2023-04-22T00:52:25.129Z,100200.06
2023-04-22T00:54:52.362Z,100204.47
2023-04-22T00:57:18.840Z,100200.88
2023-04-22T00:59:45.207Z,100199.09
2023-04-22T01:02:11.708Z,100194.53
2023-04-22T01:04:38.135Z,100192.91
2023-04-22T01:07:04.691Z,100187.59
2023-04-22T01:09:31.064Z,100180.41
2023-04-22T01:11:57.447Z,100182.28
2023-04-22T01:14:23.870Z,100188.50
2023-04-22T01:16:50.541Z,100190.31
2023-04-22T01:19:17.098Z,100199.22
2023-04-22T01:21:45.015Z,100190.31
2023-04-22T01:24:11.424Z,100192.22
2023-04-22T01:26:37.752Z,100187.78
2023-04-22T01:29:04.223Z,100192.06
2023-04-22T01:31:30.617Z,100188.63
2023-04-22T01:33:57.800Z,100192.13
2023-04-22T01:36:25.014Z,100186.88
2023-04-22T01:38:51.423Z,100185.72
2023-04-22T01:41:17.841Z,100179.56
2023-04-22T01:43:44.189Z,100175.13
2023-04-22T01:46:10.771Z,100181.47
2023-04-22T01:48:37.199Z,100183.22
2023-04-22T01:51:03.569Z,100185.00
2023-04-22T01:53:30.053Z,100185.81
2023-04-22T01:55:56.417Z,100187.53
2023-04-22T01:58:22.803Z,100188.47
2023-04-22T02:00:49.596Z,100180.53
2023-04-22T02:03:16.199Z,100189.44
2023-04-22T02:05:42.575Z,100190.41
2023-04-22T02:08:09.045Z,100191.22
2023-04-22T02:10:35.998Z,100195.72
2023-04-22T02:13:02.398Z,100191.25
2023-04-22T02:15:29.314Z,100188.59
2023-04-22T02:17:55.833Z,100187.78
2023-04-22T02:20:22.307Z,100183.28
2023-04-22T02:22:48.707Z,100184.13
2023-04-22T02:25:15.064Z,100181.41
2023-04-22T02:27:42.126Z,100184.06
2023-04-22T02:30:08.629Z,100189.44
2023-04-22T02:32:36.833Z,100174.28
2023-04-22T02:35:03.290Z,100175.25
2023-04-22T02:37:29.605Z,100171.66
2023-04-22T02:39:55.974Z,100172.47
2023-04-22T02:42:22.348Z,100179.59
2023-04-22T02:44:48.754Z,100175.25
2023-04-22T02:47:15.099Z,100164.50
2023-04-22T02:49:41.674Z,100168.22
2023-04-22T02:52:09.034Z,100159.91
2023-04-22T02:54:35.501Z,100159.00
2023-04-22T02:57:02.891Z,100152.03
2023-04-22T02:59:29.269Z,100151.31
2023-04-22T03:01:55.810Z,100150.31
2023-04-22T03:04:54.419Z,100151.34
2023-04-22T03:07:21.110Z,100154.03
2023-04-22T03:09:48.099Z,100149.69
2023-04-22T03:12:14.479Z,100136.28
2023-04-22T03:14:40.872Z,100132.78
2023-04-22T03:17:07.686Z,100133.72
2023-04-22T03:19:34.407Z,100129.28
2023-04-22T03:22:01.262Z,100133.69
2023-04-22T03:24:29.998Z,100130.19
2023-04-22T03:26:56.595Z,100131.91
2023-04-22T03:29:22.965Z,100135.53
2023-04-22T03:31:49.484Z,100131.91
2023-04-22T03:34:16.423Z,100125.72
2023-04-22T03:36:45.176Z,100126.69
2023-04-22T03:39:12.867Z,100124.94
2023-04-22T03:41:40.606Z,100124.06
2023-04-22T03:44:07.016Z,100125.84
2023-04-22T03:46:35.044Z,100118.66
2023-04-22T03:49:15.625Z,100115.13
2023-04-22T03:51:43.457Z,100116.91
2023-04-22T03:54:13.710Z,100115.94
2023-04-22T03:56:46.345Z,100107.09
2023-04-22T03:59:12.792Z,100103.44
2023-04-22T04:01:39.417Z,100100.81
2023-04-22T04:04:07.782Z,100102.50
2023-04-22T04:06:40.736Z,100108.88
2023-04-22T04:09:07.118Z,100108.97
2023-04-22T04:11:34.318Z,100108.91
2023-04-22T04:14:03.469Z,100105.25
2023-04-22T04:16:40.864Z,100104.22
2023-04-22T04:19:13.572Z,100099.88
2023-04-22T04:21:40.461Z,100098.16
2023-04-22T04:24:07.189Z,100091.91
2023-04-22T04:26:38.515Z,100092.84
2023-04-22T04:29:20.188Z,100079.50
2023-04-22T04:31:53.651Z,100080.44
2023-04-22T04:34:20.652Z,100082.94
2023-04-22T04:36:47.046Z,100086.72
2023-04-22T04:39:20.662Z,100080.38
2023-04-22T04:41:49.069Z,100078.53
2023-04-22T04:44:18.128Z,100077.69
2023-04-22T04:46:46.636Z,100074.06
2023-04-22T04:49:13.069Z,100081.00
2023-04-22T04:51:55.267Z,100082.94
2023-04-22T04:54:22.090Z,100079.22
2023-04-22T04:56:48.744Z,100071.22
2023-04-22T04:59:15.826Z,100064.19
2023-04-22T05:01:42.663Z,100068.75
2023-04-22T05:06:40.849Z,100065.09
2023-04-22T05:09:08.030Z,100056.22
2023-04-22T05:11:35.460Z,100065.06
2023-04-22T05:14:07.715Z,100062.38
2023-04-22T05:16:38.851Z,100058.81
2023-04-22T05:19:07.559Z,100053.31
2023-04-22T05:21:34.580Z,100059.59
2023-04-22T05:24:01.310Z,100055.97
2023-04-22T05:26:28.689Z,100050.47
2023-04-22T05:28:55.232Z,100059.31
2023-04-22T05:31:22.095Z,100048.81
2023-04-22T05:33:48.556Z,100055.69
2023-04-22T05:36:15.387Z,100062.72
2023-04-22T05:38:43.757Z,100058.63
2023-04-22T05:41:10.158Z,100067.25
2023-04-22T05:43:36.566Z,100071.31
2023-04-22T05:46:10.999Z,100070.34
2023-04-22T05:48:39.856Z,100068.53
2023-04-22T05:51:09.632Z,100063.91
2023-04-22T05:53:36.430Z,100063.19
2023-04-22T05:56:02.991Z,100077.38
2023-04-22T05:58:29.422Z,100060.34
2023-04-22T06:01:00.612Z,100070.78
2023-04-22T06:03:48.864Z,100071.56
2023-04-22T06:06:15.646Z,100079.97
2023-04-22T06:08:42.130Z,100067.34
2023-04-22T06:11:10.270Z,100069.50
2023-04-22T06:13:36.909Z,100065.66
2023-04-22T06:16:05.173Z,100066.38
2023-04-22T06:18:38.011Z,100075.72
2023-04-22T06:21:10.513Z,100078.22
2023-04-22T06:23:40.295Z,100070.59
2023-04-22T06:26:06.739Z,100070.75
2023-04-22T06:28:34.889Z,100079.13
2023-04-22T06:31:05.733Z,100062.78
2023-04-22T06:33:32.132Z,100073.78
2023-04-22T06:35:58.649Z,100064.28
2023-04-22T06:38:25.421Z,100061.69
2023-04-22T06:41:11.496Z,100063.78
2023-04-22T06:43:42.347Z,100059.81
2023-04-22T06:46:08.843Z,100064.97
2023-04-22T06:48:53.949Z,100061.69
2023-04-22T06:51:37.828Z,100053.56
2023-04-22T06:54:04.291Z,100049.75
2023-04-22T06:56:30.972Z,100059.16
2023-04-22T06:58:57.342Z,100058.53
2023-04-22T07:01:23.925Z,100058.63
2023-04-22T07:03:50.960Z,100062.59
2023-04-22T07:06:18.713Z,100060.88
2023-04-22T07:08:45.208Z,100063.84
2023-04-22T07:11:13.208Z,100060.16
2023-04-22T07:14:07.156Z,100058.50
2023-04-22T07:16:33.576Z,100052.50
2023-04-22T07:18:59.905Z,100049.38
2023-04-22T07:21:26.364Z,100043.28
2023-04-22T07:23:52.754Z,100051.06
2023-04-22T07:26:19.163Z,100051.97
2023-04-22T07:28:45.500Z,100045.25
2023-04-22T07:31:11.866Z,100052.91
2023-04-22T07:33:38.229Z,100039.28
2023-04-22T07:36:04.621Z,100034.97
2023-04-22T07:38:31.059Z,100032.91
2023-04-22T07:40:57.399Z,100037.31
2023-04-22T07:43:23.764Z,100038.00
2023-04-22T07:45:50.467Z,100034.13
2023-04-22T07:48:16.843Z,100034.97
2023-04-22T07:50:43.213Z,100029.69
2023-04-22T07:53:10.843Z,100018.84
2023-04-22T07:55:37.200Z,100007.66
2023-04-22T07:58:06.599Z,100008.69
2023-04-22T08:00:33.082Z,100012.41
2023-04-22T08:02:59.588Z,100010.63
2023-04-22T08:05:26.287Z,100017.50
2023-04-22T08:07:52.721Z,100015.50
2023-04-22T08:10:19.056Z,100012.78
2023-04-22T08:12:45.934Z,100001.94
2023-04-22T08:15:12.420Z,100000.09
2023-04-22T08:17:38.879Z,100006.50
2023-04-22T08:20:07.961Z,100005.66
2023-04-22T08:22:35.643Z,100004.03
2023-04-22T08:25:02.006Z,100005.88
2023-04-22T08:27:28.382Z,100000.91
2023-04-22T08:29:54.765Z,100001.75
2023-04-22T08:32:22.448Z,99994.50
2023-04-22T08:34:51.880Z,99989.44
2023-04-22T08:37:20.739Z,99987.22
2023-04-22T08:39:47.133Z,99985.69
2023-04-22T08:42:13.516Z,99990.91
2023-04-22T08:44:39.896Z,99996.91
2023-04-22T08:47:06.303Z,99992.72
2023-04-22T08:49:32.745Z,99998.94
2023-04-22T08:51:59.098Z,99989.44
2023-04-22T08:54:25.933Z,99989.22
2023-04-22T08:56:52.371Z,99976.50
2023-04-22T08:59:18.764Z,99981.00
2023-04-22T09:01:45.317Z,99975.91
2023-04-22T09:04:11.959Z,99968.00
2023-04-22T09:06:38.717Z,99972.56
2023-04-22T09:09:05.258Z,99973.53
2023-04-22T09:11:32.818Z,99967.84
2023-04-22T09:13:59.211Z,99973.63
2023-04-22T09:16:25.645Z,99968.81
2023-04-22T09:18:52.104Z,99966.00
2023-04-22T09:21:18.493Z,99958.66
2023-04-22T09:23:45.009Z,99964.84
2023-04-22T09:26:11.393Z,99959.50
2023-04-22T09:28:37.890Z,99966.00
2023-04-22T09:31:04.316Z,99962.72
2023-04-22T09:33:30.821Z,99967.94
2023-04-22T09:35:57.177Z,99970.31
2023-04-22T09:38:23.679Z,99959.16
2023-04-22T09:40:50.181Z,99954.22
2023-04-22T09:43:16.544Z,99956.78
2023-04-22T09:45:43.078Z,99953.38
2023-04-22T09:48:09.636Z,99964.31
2023-04-22T09:50:36.013Z,99957.31
2023-04-22T09:53:02.415Z,99958.53
2023-04-22T09:55:29.182Z,99957.63
2023-04-22T09:57:55.665Z,99954.00
2023-04-22T10:00:22.097Z,99954.22
2023-04-22T10:02:48.619Z,99954.50
2023-04-22T10:05:15.099Z,99938.72
2023-04-22T10:07:41.600Z,99946.97
2023-04-22T10:10:08.198Z,99947.88
2023-04-22T10:12:36.023Z,99945.16
2023-04-22T10:15:02.584Z,99939.66
2023-04-22T10:17:28.970Z,99935.34
2023-04-22T10:19:56.460Z,99940.31
2023-04-22T10:22:22.830Z,99937.50
2023-04-22T10:24:50.221Z,99939.00
2023-04-22T10:27:16.583Z,99939.03
2023-04-22T10:29:43.553Z,99940.41
2023-04-22T10:32:10.989Z,99949.19
2023-04-22T10:34:38.947Z,99943.22
2023-04-22T10:37:05.354Z,99932.84
2023-04-22T10:39:32.039Z,99934.72
2023-04-22T10:41:58.514Z,99933.75
2023-04-22T10:44:24.902Z,99923.31
2023-04-22T10:46:52.125Z,99912.53
2023-04-22T10:49:20.480Z,99930.03
2023-04-22T10:51:46.862Z,99924.44
2023-04-22T10:54:13.206Z,99927.50
2023-04-22T10:56:45.641Z,99927.78
2023-04-22T10:59:14.941Z,99925.25
2023-04-22T11:01:41.404Z,99928.72
2023-04-22T11:04:07.829Z,99925.66
2023-04-22T11:06:34.297Z,99929.28
2023-04-22T11:09:00.700Z,99932.28
2023-04-22T11:11:27.459Z,99924.00
2023-04-22T11:13:54.869Z,99935.81
2023-04-22T11:16:22.305Z,99932.13
2023-04-22T11:18:49.239Z,99932.81
2023-04-22T11:21:15.836Z,99930.13
2023-04-22T11:23:42.287Z,99923.63
2023-04-22T11:26:08.888Z,99921.88
2023-04-22T11:28:35.505Z,99934.56
2023-04-22T11:31:02.001Z,99932.66
2023-04-22T11:33:28.589Z,99935.50
2023-04-22T11:35:55.426Z,99936.19
2023-04-22T11:38:21.809Z,99935.75
2023-04-22T11:40:48.896Z,99943.38
2023-04-22T11:43:15.517Z,99938.47
2023-04-22T11:45:42.235Z,99943.50
2023-04-22T11:48:08.647Z,99945.81
2023-04-22T11:50:35.046Z,99939.47
2023-04-22T11:53:01.529Z,99937.38
2023-04-22T11:55:30.196Z,99939.03
2023-04-22T11:57:56.648Z,99936.69
2023-04-22T12:00:23.054Z,99933.69
2023-04-22T12:02:49.529Z,99932.84
2023-04-22T12:05:16.116Z,99927.94
2023-04-22T12:07:42.728Z,99917.94
2023-04-22T12:10:09.186Z,99920.75
2023-04-22T12:12:37.190Z,99925.69
2023-04-22T12:15:04.224Z,99924.94
2023-04-22T12:17:30.792Z,99917.66
2023-04-22T12:19:57.252Z,99921.38
2023-04-22T12:22:23.598Z,99925.81
2023-04-22T12:24:49.999Z,99927.63
2023-04-22T12:27:16.621Z,99928.44
2023-04-22T12:29:42.992Z,99928.19
2023-04-22T12:32:09.464Z,99918.31
2023-04-22T12:34:35.851Z,99925.06
2023-04-22T12:37:02.233Z,99925.72
2023-04-22T12:39:28.591Z,99924.06
2023-04-22T12:41:55.007Z,99921.56
2023-04-22T12:44:22.515Z,99921.03
2023-04-22T12:46:50.268Z,99916.28
2023-04-22T12:49:16.765Z,99915.94
2023-04-22T12:51:43.138Z,99899.03
2023-04-22T12:54:10.640Z,99921.88
2023-04-22T12:56:37.072Z,99912.50
2023-04-22T12:59:03.610Z,99926.78
2023-04-22T13:01:30.099Z,99920.94
2023-04-22T13:03:56.722Z,99927.88
2023-04-22T13:06:23.244Z,99928.69
2023-04-22T13:08:49.730Z,99923.00
2023-04-22T13:11:16.609Z,99920.06
2023-04-22T13:13:42.971Z,99927.66
2023-04-22T13:16:09.415Z,99928.09
2023-04-22T13:18:36.280Z,99922.78
2023-04-22T13:21:03.130Z,99926.91
2023-04-22T13:23:29.874Z,99928.88
2023-04-22T13:25:56.352Z,99929.25
2023-04-22T13:28:23.057Z,99930.19
2023-04-22T13:30:49.638Z,99942.91
2023-04-22T13:33:16.105Z,99949.09
2023-04-22T13:35:42.908Z,99952.47
2023-04-22T13:38:09.312Z,99962.34
2023-04-22T13:40:36.029Z,99963.97
2023-04-22T13:43:02.450Z,99947.38
2023-04-22T13:45:28.903Z,99945.50
2023-04-22T13:47:55.433Z,99958.41
2023-04-22T13:50:21.873Z,99952.22
2023-04-22T13:52:48.209Z,99957.91
2023-04-22T13:55:14.596Z,99950.69
2023-04-22T13:57:41.099Z,99961.06
2023-04-22T14:00:07.555Z,99959.97
2023-04-22T14:02:39.770Z,99971.44
2023-04-22T14:05:06.329Z,99972.13
2023-04-22T14:07:32.719Z,99977.16
2023-04-22T14:09:59.121Z,99969.38
2023-04-22T14:12:25.525Z,99965.69
2023-04-22T14:14:51.950Z,99971.31
2023-04-22T14:17:20.706Z,99981.72
2023-04-22T14:19:47.095Z,99984.81
2023-04-22T14:22:13.466Z,99982.69
2023-04-22T14:24:39.821Z,99988.06
2023-04-22T14:27:06.252Z,99988.81
2023-04-22T14:29:32.661Z,99996.50
2023-04-22T14:31:59.631Z,99999.63
2023-04-22T14:34:27.109Z,99993.28
2023-04-22T14:36:53.458Z,99985.63
2023-04-22T14:39:19.881Z,99990.44
2023-04-22T14:41:46.266Z,99986.59
2023-04-22T14:44:15.774Z,99984.41
2023-04-22T14:46:42.252Z,99980.13
2023-04-22T14:49:08.632Z,99984.63
2023-04-22T14:51:36.474Z,99970.03
2023-04-22T14:54:02.934Z,99981.25
2023-04-22T14:56:29.698Z,99972.09
2023-04-22T14:58:56.142Z,99977.13
2023-04-22T15:01:23.021Z,99976.66
2023-04-22T15:03:49.548Z,99981.22
2023-04-22T15:06:16.142Z,99983.41
2023-04-22T15:08:42.837Z,99976.31
2023-04-22T15:11:09.245Z,99994.03
2023-04-22T15:13:36.038Z,99988.38
2023-04-22T15:16:02.482Z,99992.91
2023-04-22T15:18:31.746Z,99990.34
2023-04-22T15:20:58.384Z,99989.16
2023-04-22T15:23:24.798Z,99986.47
2023-04-22T15:25:51.162Z,99980.25
2023-04-22T15:28:17.638Z,99980.13
2023-04-22T15:30:44.301Z,99979.63
2023-04-22T15:33:10.712Z,99989.31
2023-04-22T15:35:37.065Z,99977.00
2023-04-22T15:38:03.666Z,99979.09
2023-04-22T15:40:30.067Z,99973.31
2023-04-22T15:42:56.521Z,99974.25
2023-04-22T15:45:22.986Z,99968.94
2023-04-22T15:47:52.151Z,99978.16
2023-04-22T15:50:19.276Z,99977.66
2023-04-22T15:52:46.585Z,99977.13
2023-04-22T15:55:13.087Z,99980.72
2023-04-22T15:57:39.608Z,99969.59
2023-04-22T16:00:12.420Z,99970.63
2023-04-22T16:02:42.993Z,99962.38
2023-04-22T16:05:10.161Z,99970.91
2023-04-22T16:07:36.554Z,99965.84
2023-04-22T16:10:03.035Z,99963.63
2023-04-22T16:12:30.177Z,99967.75
2023-04-22T16:14:57.913Z,99965.84
2023-04-22T16:17:24.336Z,99977.44
2023-04-22T16:19:50.941Z,99981.78
2023-04-22T16:22:17.371Z,99990.63
2023-04-22T16:24:44.400Z,99991.13
2023-04-22T16:27:16.000Z,99995.78
2023-04-22T16:29:42.652Z,99998.56
2023-04-22T16:32:09.332Z,100003.81
2023-04-22T16:34:36.776Z,100018.47
2023-04-22T16:37:03.346Z,100018.91
2023-04-22T16:39:29.783Z,100016.81
2023-04-22T16:41:56.124Z,100017.56
2023-04-22T16:44:22.477Z,100009.22
2023-04-22T16:46:49.122Z,100005.97
2023-04-22T16:49:15.495Z,100010.66
2023-04-22T16:51:41.966Z,100007.66
2023-04-22T16:54:08.425Z,100008.34
2023-04-22T16:56:34.872Z,100014.06
2023-04-22T16:59:01.448Z,100010.28
2023-04-22T17:01:28.847Z,100012.34
2023-04-22T17:03:55.411Z,100023.41
2023-04-22T17:06:22.193Z,100016.53
2023-04-22T17:08:48.599Z,100012.34
2023-04-22T17:11:15.017Z,100017.31
2023-04-22T17:13:41.473Z,100016.22
2023-04-22T17:16:10.911Z,100018.28
2023-04-22T17:18:37.335Z,100012.41
2023-04-22T17:21:03.707Z,100013.28
2023-04-22T17:23:30.172Z,100012.00
2023-04-22T17:25:56.556Z,100011.38
2023-04-22T17:28:22.863Z,100015.41
2023-04-22T17:30:49.204Z,100011.38
2023-04-22T17:33:15.669Z,100003.72
2023-04-22T17:35:41.994Z,100009.38
2023-04-22T17:38:08.375Z,100016.44
2023-04-22T17:40:34.778Z,100014.19
2023-04-22T17:43:01.328Z,100016.31
2023-04-22T17:45:27.733Z,100018.63
2023-04-22T17:47:54.296Z,100013.75
2023-04-22T17:50:20.843Z,100015.16
2023-04-22T17:52:47.272Z,100020.56
2023-04-22T17:55:13.680Z,100020.84
2023-04-22T17:57:41.040Z,100015.34
2023-04-22T18:00:08.368Z,100016.78
2023-04-22T18:02:34.813Z,100021.06
2023-04-22T18:05:01.412Z,100022.59
2023-04-22T18:07:27.813Z,100023.41
2023-04-22T18:09:54.307Z,100019.78
2023-04-22T18:12:24.013Z,100020.38
2023-04-22T18:14:50.841Z,100022.75
2023-04-22T18:17:20.106Z,100018.53
2023-04-22T18:19:46.549Z,100020.88
2023-04-22T18:22:12.968Z,100026.06
2023-04-22T18:24:39.566Z,100023.38
2023-04-22T18:27:09.034Z,100027.06
2023-04-22T18:29:38.283Z,100024.03
2023-04-22T18:32:05.030Z,100024.50
2023-04-22T18:34:31.384Z,100023.28
2023-04-22T18:36:57.765Z,100022.50
2023-04-22T18:39:24.168Z,100025.53
2023-04-22T18:41:50.643Z,100032.66
2023-04-22T18:44:16.989Z,100031.69
2023-04-22T18:46:43.428Z,100043.22
2023-04-22T18:49:09.803Z,100035.25
2023-04-22T18:51:36.161Z,100048.19
2023-04-22T18:54:02.551Z,100045.13
2023-04-22T18:56:32.721Z,100046.78
2023-04-22T18:58:59.123Z,100045.44
2023-04-22T19:01:25.592Z,100052.03
2023-04-22T19:03:52.172Z,100058.94
2023-04-22T19:06:18.568Z,100057.59
2023-04-22T19:08:45.126Z,100077.50
2023-04-22T19:11:11.730Z,100076.03
2023-04-22T19:13:38.253Z,100100.69
2023-04-22T19:16:04.784Z,100084.81
2023-04-22T19:18:31.344Z,100096.28
2023-04-22T19:20:57.752Z,100096.56
2023-04-22T19:23:24.897Z,100101.88
2023-04-22T19:25:51.851Z,100103.28
2023-04-22T19:28:18.283Z,100081.50
2023-04-22T19:30:44.667Z,100089.41
2023-04-22T19:33:11.688Z,100089.19
2023-04-22T19:35:38.115Z,100099.22
2023-04-22T19:38:04.728Z,100089.94
2023-04-22T19:40:31.152Z,100100.69
2023-04-22T19:42:59.079Z,100106.41
2023-04-22T19:45:25.763Z,100099.47
2023-04-22T19:47:52.161Z,100106.50
2023-04-22T19:50:18.652Z,100114.28
2023-04-22T19:52:45.015Z,100111.81
2023-04-22T19:55:11.871Z,100107.88
2023-04-22T19:57:38.593Z,100115.13
2023-04-22T20:00:07.043Z,100105.94
2023-04-22T20:02:38.812Z,100108.38
2023-04-22T20:05:05.778Z,100119.22
2023-04-22T20:07:32.768Z,100123.16
2023-04-22T20:09:59.251Z,100126.75
2023-04-22T20:12:26.081Z,100126.84
2023-04-22T20:14:52.688Z,100126.84
2023-04-22T20:17:19.054Z,100126.66
2023-04-22T20:19:45.478Z,100123.09
2023-04-22T20:22:13.670Z,100128.94
2023-04-22T20:24:41.177Z,100136.41
2023-04-22T20:27:07.744Z,100129.00
2023-04-22T20:29:34.453Z,100135.31
2023-04-22T20:32:00.943Z,100123.06
2023-04-22T20:34:27.363Z,100129.47
2023-04-22T20:36:54.818Z,100127.00
2023-04-22T20:39:21.291Z,100122.66
2023-04-22T20:41:48.922Z,100135.81
2023-04-22T20:44:15.394Z,100136.41
2023-04-22T20:46:41.760Z,100143.91
2023-04-22T20:49:08.286Z,100144.31
2023-04-22T20:51:35.133Z,100155.84
2023-04-22T20:54:01.790Z,100149.53
2023-04-22T20:56:28.239Z,100153.81
2023-04-22T20:58:54.634Z,100154.44
2023-04-22T21:01:21.124Z,100158.63
2023-04-22T21:03:47.692Z,100153.78
2023-04-22T21:06:14.218Z,100156.13
2023-04-22T21:08:40.858Z,100162.81
2023-04-22T21:11:07.338Z,100161.66
2023-04-22T21:13:33.978Z,100172.34
2023-04-22T21:16:00.654Z,100175.06
2023-04-22T21:18:27.059Z,100171.97
2023-04-22T21:20:53.833Z,100174.94
2023-04-22T21:23:20.546Z,100178.44
2023-04-22T21:25:50.650Z,100181.31
2023-04-22T21:28:18.062Z,100181.25
2023-04-22T21:30:44.510Z,100175.75
2023-04-22T21:33:13.705Z,100181.53
2023-04-22T21:35:43.687Z,100178.31
2023-04-22T21:38:10.115Z,100187.91
2023-04-22T21:40:36.511Z,100181.78
2023-04-22T21:43:04.496Z,100184.34
2023-04-22T21:45:31.178Z,100179.91
2023-04-22T21:48:00.389Z,100179.34
2023-04-22T21:50:26.848Z,100187.78
2023-04-22T21:52:53.195Z,100183.28
2023-04-22T21:55:19.830Z,100190.94
2023-04-22T21:57:46.395Z,100188.19
2023-04-22T22:00:18.577Z,100190.69
2023-04-22T22:02:47.131Z,100203.16
2023-04-22T22:05:13.709Z,100204.22
2023-04-22T22:07:42.742Z,100196.41
2023-04-22T22:10:11.999Z,100193.28
2023-04-22T22:12:38.613Z,100190.47
2023-04-22T22:15:09.889Z,100194.88
2023-04-22T22:17:42.518Z,100205.41
2023-04-22T22:20:12.172Z,100207.06
2023-04-22T22:22:38.642Z,100217.69
2023-04-22T22:25:08.479Z,100223.69
2023-04-22T22:27:34.887Z,100216.16
2023-04-22T22:30:01.277Z,100219.88
2023-04-22T22:32:29.868Z,100216.16
2023-04-22T22:34:56.429Z,100209.03
2023-04-22T22:37:25.894Z,100212.47
2023-04-22T22:39:55.214Z,100215.31
2023-04-22T22:42:21.984Z,100217.88
2023-04-22T22:44:50.326Z,100211.66
2023-04-22T22:47:24.760Z,100216.84
2023-04-22T22:49:51.734Z,100218.69
2023-04-22T22:52:18.496Z,100224.75
2023-04-22T22:54:45.408Z,100221.34
2023-04-22T22:57:12.419Z,100226.28
2023-04-22T22:59:39.157Z,100223.06
2023-04-22T23:02:05.774Z,100225.56
2023-04-22T23:04:33.178Z,100228.28
2023-04-22T23:07:02.246Z,100220.50
2023-04-22T23:09:31.339Z,100217.84
2023-04-22T23:11:57.883Z,100213.25
2023-04-22T23:14:24.265Z,100222.09
2023-04-22T23:16:54.142Z,100213.38
2023-04-22T23:19:23.599Z,100197.84
2023-04-22T23:21:50.047Z,100211.44
2023-04-22T23:24:16.799Z,100211.06
2023-04-22T23:26:43.237Z,100201.53
2023-04-22T23:29:09.925Z,100204.34
2023-04-22T23:31:36.353Z,100202.94
2023-04-22T23:34:02.777Z,100201.25
2023-04-22T23:36:29.147Z,100199.22
2023-04-22T23:38:57.753Z,100193.34
2023-04-22T23:41:24.322Z,100191.44
2023-04-22T23:43:50.726Z,100194.22
2023-04-22T23:46:18.679Z,100193.03
2023-04-22T23:48:45.425Z,100183.13
2023-04-22T23:51:16.022Z,100185.97
2023-04-22T23:53:42.405Z,100186.78
2023-04-22T23:56:09.277Z,100180.47
2023-04-22T23:58:35.712Z,100184.97
